createdAt,value
2023-12-24T00:02:12.022Z,3.70
2023-12-24T00:04:38.975Z,3.67
2023-12-24T00:07:06.020Z,4.72
2023-12-24T00:09:33.005Z,3.55
2023-12-24T00:11:59.991Z,3.45
2023-12-24T00:14:26.958Z,4.22
2023-12-24T00:16:53.985Z,4.18
2023-12-24T00:19:21.046Z,4.40
2023-12-24T00:21:48.033Z,3.80
2023-12-24T00:24:14.999Z,3.22
2023-12-24T00:26:42.030Z,3.42
2023-12-24T00:29:09.156Z,4.47
2023-12-24T00:31:36.255Z,3.47
2023-12-24T00:34:04.156Z,3.65
2023-12-24T00:36:31.131Z,4.43
2023-12-24T00:38:58.155Z,3.03
2023-12-24T00:41:25.701Z,3.45
2023-12-24T00:43:53.327Z,3.63
2023-12-24T00:46:20.202Z,3.35
2023-12-24T00:48:47.326Z,3.33
2023-12-24T00:51:14.385Z,5.45
2023-12-24T00:53:41.427Z,3.35
2023-12-24T00:56:08.545Z,3.10
2023-12-24T00:58:35.453Z,3.83
2023-12-24T01:01:02.407Z,3.28
2023-12-24T01:03:29.632Z,3.45
2023-12-24T01:05:56.736Z,3.08
2023-12-24T01:08:23.872Z,3.53
2023-12-24T01:10:53.719Z,3.08
2023-12-24T01:13:21.443Z,2.85
2023-12-24T01:15:49.546Z,3.35
2023-12-24T01:18:17.086Z,2.97
2023-12-24T01:20:44.741Z,2.90
2023-12-24T01:23:11.710Z,2.97
2023-12-24T01:25:38.882Z,3.67
2023-12-24T01:28:06.157Z,3.30
2023-12-24T01:30:33.268Z,2.78
2023-12-24T01:33:01.122Z,2.83
2023-12-24T01:35:28.328Z,2.67
2023-12-24T01:37:55.613Z,3.13
2023-12-24T01:40:22.639Z,3.58
2023-12-24T01:42:50.380Z,2.83
2023-12-24T01:45:17.641Z,3.05
2023-12-24T01:47:50.887Z,3.13
2023-12-24T01:50:20.553Z,3.08
2023-12-24T01:52:47.495Z,3.17
2023-12-24T01:55:14.589Z,2.75
2023-12-24T01:57:41.566Z,3.08
2023-12-24T02:00:09.189Z,3.92
2023-12-24T02:02:36.745Z,2.83
2023-12-24T02:05:04.085Z,2.67
2023-12-24T02:07:35.591Z,4.13
2023-12-24T02:10:02.927Z,3.15
2023-12-24T02:12:31.928Z,3.85
2023-12-24T02:14:58.842Z,3.05
2023-12-24T02:17:27.240Z,2.70
2023-12-24T02:19:54.316Z,3.08
2023-12-24T02:22:21.990Z,2.20
2023-12-24T02:24:49.085Z,2.17
2023-12-24T02:27:25.299Z,3.05
2023-12-24T02:29:57.618Z,2.50
2023-12-24T02:32:26.967Z,2.90
2023-12-24T02:34:57.261Z,2.33
2023-12-24T02:37:24.739Z,2.67
2023-12-24T02:39:51.716Z,2.15
2023-12-24T02:42:19.216Z,3.50
2023-12-24T02:44:46.178Z,2.90
2023-12-24T02:47:13.115Z,2.42
2023-12-24T02:49:40.105Z,3.75
2023-12-24T02:52:07.172Z,2.92
2023-12-24T02:54:34.078Z,3.33
2023-12-24T02:57:01.119Z,2.40
2023-12-24T02:59:29.382Z,2.58
2023-12-24T03:01:56.872Z,2.67
2023-12-24T03:04:23.757Z,2.65
2023-12-24T03:06:50.717Z,3.33
2023-12-24T03:09:17.762Z,2.78
2023-12-24T03:11:44.860Z,2.60
2023-12-24T03:14:11.903Z,2.83
2023-12-24T03:16:39.076Z,2.70
2023-12-24T03:19:06.011Z,2.80
2023-12-24T03:21:33.023Z,3.17
2023-12-24T03:24:00.085Z,2.72
2023-12-24T03:26:27.024Z,3.13
2023-12-24T03:28:54.135Z,2.88
2023-12-24T03:31:21.738Z,2.65
2023-12-24T03:33:48.895Z,1.45
2023-12-24T03:36:15.881Z,2.75
2023-12-24T03:38:43.833Z,2.40
2023-12-24T03:41:10.703Z,3.42
2023-12-24T03:43:37.756Z,2.97
2023-12-24T03:46:04.804Z,3.10
2023-12-24T03:48:33.214Z,3.10
2023-12-24T03:51:00.295Z,2.90
2023-12-24T03:53:27.348Z,2.60
2023-12-24T03:55:54.253Z,2.17
2023-12-24T03:58:21.336Z,3.40
2023-12-24T04:00:48.426Z,2.70
2023-12-24T04:03:15.377Z,2.53
2023-12-24T04:05:42.466Z,2.15
2023-12-24T04:08:09.995Z,2.22
2023-12-24T04:10:42.832Z,2.58
2023-12-24T04:13:13.417Z,2.60
2023-12-24T04:15:40.453Z,2.90
2023-12-24T04:18:07.728Z,2.40
2023-12-24T04:20:34.983Z,2.38
2023-12-24T04:23:01.946Z,3.10
2023-12-24T04:25:28.949Z,3.10
2023-12-24T04:27:55.885Z,2.78
2023-12-24T04:30:22.903Z,3.10
2023-12-24T04:32:50.009Z,2.70
2023-12-24T04:35:17.157Z,2.13
2023-12-24T04:37:44.133Z,2.95
2023-12-24T04:40:12.905Z,2.38
2023-12-24T04:42:40.440Z,2.50
2023-12-24T04:45:07.980Z,3.33
2023-12-24T04:47:35.081Z,2.42
2023-12-24T04:50:02.210Z,2.58
2023-12-24T04:52:29.332Z,2.33
2023-12-24T04:54:56.306Z,1.98
2023-12-24T04:57:23.210Z,2.65
2023-12-24T04:59:50.107Z,2.20
2023-12-24T05:02:17.160Z,2.45
2023-12-24T05:04:44.249Z,3.05
2023-12-24T05:07:11.292Z,2.55
2023-12-24T05:09:42.504Z,2.47
2023-12-24T05:12:10.465Z,2.97
2023-12-24T05:14:37.402Z,2.50
2023-12-24T05:17:04.923Z,2.20
2023-12-24T05:19:32.045Z,2.40
2023-12-24T05:21:59.115Z,2.45
2023-12-24T05:24:26.541Z,1.98
2023-12-24T05:26:53.583Z,2.25
2023-12-24T05:29:20.515Z,2.03
2023-12-24T05:31:47.713Z,1.92
2023-12-24T05:34:14.694Z,2.72
2023-12-24T05:36:41.698Z,2.88
2023-12-24T05:39:12.189Z,2.38
2023-12-24T05:41:39.175Z,4.07
2023-12-24T05:44:06.264Z,2.80
2023-12-24T05:46:33.313Z,2.35
2023-12-24T05:49:00.275Z,2.25
2023-12-24T05:51:27.269Z,2.33
2023-12-24T05:53:54.182Z,2.78
2023-12-24T05:56:21.129Z,3.35
2023-12-24T05:58:48.035Z,3.20
2023-12-24T06:01:14.987Z,2.38
2023-12-24T06:03:43.089Z,2.45
2023-12-24T06:06:10.333Z,2.30
2023-12-24T06:08:37.476Z,2.30
2023-12-24T06:11:04.628Z,2.58
2023-12-24T06:13:31.600Z,3.05
2023-12-24T06:15:58.547Z,2.30
2023-12-24T06:18:25.677Z,2.58
2023-12-24T06:20:52.887Z,2.58
2023-12-24T06:23:19.883Z,2.47
2023-12-24T06:25:46.777Z,2.38
2023-12-24T06:28:13.777Z,2.83
2023-12-24T06:30:40.664Z,2.83
2023-12-24T06:33:09.073Z,2.35
2023-12-24T06:35:36.066Z,3.30
2023-12-24T06:38:03.232Z,2.30
2023-12-24T06:40:30.094Z,2.55
2023-12-24T06:42:56.997Z,3.55
2023-12-24T06:45:23.996Z,2.42
2023-12-24T06:47:51.042Z,2.88
2023-12-24T06:50:19.065Z,3.30
2023-12-24T06:52:46.193Z,2.70
2023-12-24T06:55:13.346Z,3.03
2023-12-24T06:57:40.317Z,2.90
2023-12-24T07:00:07.872Z,4.68
2023-12-24T07:02:34.935Z,4.10
2023-12-24T07:05:02.352Z,2.55
2023-12-24T07:07:29.518Z,3.00
2023-12-24T07:09:57.168Z,2.92
2023-12-24T07:12:25.197Z,4.18
2023-12-24T07:14:52.275Z,2.97
2023-12-24T07:17:19.415Z,2.70
2023-12-24T07:19:46.468Z,2.50
2023-12-24T07:22:17.097Z,3.33
2023-12-24T07:24:43.958Z,2.63
2023-12-24T07:27:11.002Z,2.42
2023-12-24T07:29:38.323Z,3.30
2023-12-24T07:32:05.814Z,3.47
2023-12-24T07:34:32.732Z,2.80
2023-12-24T07:36:59.657Z,2.80
2023-12-24T07:39:26.787Z,3.60
2023-12-24T07:41:56.758Z,2.72
2023-12-24T07:44:23.755Z,3.25
2023-12-24T07:46:50.640Z,2.88
2023-12-24T07:49:17.585Z,2.92
2023-12-24T07:51:44.557Z,2.70
2023-12-24T07:54:11.462Z,2.95
2023-12-24T07:56:38.380Z,3.70
2023-12-24T07:59:05.416Z,3.75
2023-12-24T08:01:32.490Z,3.00
2023-12-24T08:03:59.395Z,4.28
2023-12-24T08:06:28.803Z,3.05
2023-12-24T08:08:57.759Z,3.10
2023-12-24T08:11:25.005Z,2.90
2023-12-24T08:13:52.135Z,3.25
2023-12-24T08:16:19.069Z,3.53
2023-12-24T08:18:46.221Z,4.03
2023-12-24T08:21:13.383Z,3.00
2023-12-24T08:23:40.681Z,3.30
2023-12-24T08:26:07.712Z,3.42
2023-12-24T08:28:34.715Z,3.85
2023-12-24T08:31:02.136Z,3.75
2023-12-24T08:33:29.489Z,3.75
2023-12-24T08:35:56.570Z,3.70
2023-12-24T08:38:23.529Z,3.83
2023-12-24T08:40:50.580Z,3.88
2023-12-24T08:43:17.485Z,3.70
2023-12-24T08:45:44.374Z,3.17
2023-12-24T08:48:11.487Z,3.10
2023-12-24T08:50:38.672Z,5.25
2023-12-24T08:53:06.176Z,4.95
2023-12-24T08:55:33.160Z,4.93
2023-12-24T08:58:00.467Z,6.00
2023-12-24T09:00:27.470Z,4.45
2023-12-24T09:02:54.667Z,3.83
2023-12-24T09:05:22.041Z,4.70
2023-12-24T09:07:49.009Z,3.92
2023-12-24T09:10:15.903Z,3.40
2023-12-24T09:12:42.937Z,4.07
2023-12-24T09:15:10.356Z,5.10
2023-12-24T09:17:37.356Z,4.65
2023-12-24T09:20:06.958Z,3.90
2023-12-24T09:22:34.424Z,4.10
2023-12-24T09:25:01.638Z,4.43
2023-12-24T09:27:28.944Z,3.50
2023-12-24T09:29:55.891Z,5.63
2023-12-24T09:32:22.784Z,4.20
2023-12-24T09:34:49.744Z,3.95
2023-12-24T09:37:16.743Z,3.85
2023-12-24T09:39:44.775Z,4.05
2023-12-24T09:42:11.808Z,4.03
2023-12-24T09:44:38.734Z,3.60
2023-12-24T09:47:05.928Z,4.13
2023-12-24T09:49:32.942Z,3.20
2023-12-24T09:52:01.279Z,3.92
2023-12-24T09:54:28.322Z,3.50
2023-12-24T09:56:57.016Z,3.75
2023-12-24T09:59:23.955Z,3.75
2023-12-24T10:01:51.102Z,3.85
2023-12-24T10:04:18.038Z,4.45
2023-12-24T10:06:58.685Z,5.00
2023-12-24T10:09:51.365Z,6.00
2023-12-24T10:12:20.092Z,4.75
2023-12-24T10:15:05.656Z,4.45
2023-12-24T10:17:34.352Z,5.30
2023-12-24T10:20:10.643Z,5.07
2023-12-24T10:22:37.908Z,4.97
2023-12-24T10:25:07.227Z,5.90
2023-12-24T10:27:35.858Z,4.55
2023-12-24T10:30:14.734Z,4.10
2023-12-24T10:32:43.904Z,4.70
2023-12-24T10:35:11.571Z,4.22
2023-12-24T10:37:38.688Z,3.95
2023-12-24T10:40:10.747Z,4.45
2023-12-24T10:42:41.663Z,5.38
2023-12-24T10:45:10.452Z,3.75
2023-12-24T10:50:06.235Z,4.60
2023-12-24T10:52:33.353Z,4.22
2023-12-24T10:55:01.928Z,6.53
2023-12-24T10:57:41.924Z,4.60
2023-12-24T11:00:11.899Z,4.55
2023-12-24T11:02:39.262Z,4.40
2023-12-24T11:05:07.261Z,5.30
2023-12-24T11:07:49.469Z,6.43
2023-12-24T11:10:40.332Z,4.63
2023-12-24T11:13:13.256Z,5.32
2023-12-24T11:15:43.028Z,5.55
2023-12-24T11:18:11.407Z,4.38
2023-12-24T11:20:42.926Z,5.53
2023-12-24T11:23:10.768Z,5.57
2023-12-24T11:28:24.448Z,4.60
2023-12-24T11:30:51.779Z,4.53
2023-12-24T11:33:46.911Z,4.40
2023-12-24T11:36:15.733Z,4.28
2023-12-24T11:38:43.523Z,3.50
2023-12-24T11:41:21.335Z,4.57
2023-12-24T11:44:01.982Z,3.80
2023-12-24T11:46:30.788Z,4.28
2023-12-24T11:49:04.332Z,4.18
2023-12-24T11:51:33.219Z,4.75
2023-12-24T11:54:05.085Z,4.57
2023-12-24T11:56:33.616Z,4.82
2023-12-24T11:59:03.087Z,4.05
2023-12-24T12:01:38.714Z,5.10
2023-12-24T12:04:06.988Z,3.88
2023-12-24T12:06:36.116Z,3.78
2023-12-24T12:09:07.861Z,4.68
2023-12-24T12:11:35.319Z,4.03
2023-12-24T12:14:05.700Z,4.50
2023-12-24T12:16:32.879Z,4.15
2023-12-24T12:19:00.128Z,18.77
2023-12-24T12:21:27.236Z,17.50
2023-12-24T12:23:54.478Z,3.47
2023-12-24T12:26:21.579Z,33.13
2023-12-24T12:28:48.525Z,5.63
2023-12-24T12:31:15.470Z,5.70
2023-12-24T12:33:42.952Z,4.60
2023-12-24T12:36:10.703Z,5.78
2023-12-24T12:38:37.654Z,4.43
2023-12-24T12:41:05.525Z,5.15
2023-12-24T12:43:33.098Z,4.85
2023-12-24T12:46:00.051Z,4.55
2023-12-24T12:48:27.282Z,4.75
2023-12-24T12:50:54.505Z,4.65
2023-12-24T12:53:26.414Z,5.07
2023-12-24T12:56:08.314Z,4.50
2023-12-24T12:58:35.521Z,4.53
2023-12-24T13:01:02.924Z,5.18
2023-12-24T13:03:30.054Z,4.20
2023-12-24T13:05:58.824Z,4.88
2023-12-24T13:08:26.739Z,4.40
2023-12-24T13:10:53.830Z,6.60
2023-12-24T13:13:25.345Z,4.13
2023-12-24T13:16:08.817Z,5.47
2023-12-24T13:18:37.127Z,5.20
2023-12-24T13:21:05.962Z,4.75
2023-12-24T13:23:33.425Z,4.22
2023-12-24T13:26:04.562Z,5.15
2023-12-24T13:28:31.809Z,5.25
2023-12-24T13:30:58.807Z,6.28
2023-12-24T13:33:26.055Z,6.45
2023-12-24T13:35:53.025Z,6.03
2023-12-24T13:38:21.875Z,4.60
2023-12-24T13:40:49.118Z,4.63
2023-12-24T13:43:16.628Z,4.55
2023-12-24T13:45:43.752Z,5.63
2023-12-24T13:48:13.095Z,4.75
2023-12-24T13:50:42.627Z,4.97
2023-12-24T13:53:19.301Z,5.05
2023-12-24T13:55:58.425Z,5.18
2023-12-24T13:58:25.810Z,5.10
2023-12-24T14:00:52.893Z,5.63
2023-12-24T14:03:25.461Z,4.97
2023-12-24T14:05:52.886Z,5.00
2023-12-24T14:08:22.488Z,5.03
2023-12-24T14:10:50.260Z,5.07
2023-12-24T14:13:17.405Z,5.47
2023-12-24T14:15:44.386Z,5.68
2023-12-24T14:18:11.540Z,6.10
2023-12-24T14:20:39.319Z,5.88
2023-12-24T14:23:06.335Z,5.45
2023-12-24T14:25:33.282Z,4.53
2023-12-24T14:28:00.221Z,4.50
2023-12-24T14:30:27.104Z,5.10
2023-12-24T14:32:55.080Z,5.10
2023-12-24T14:35:22.300Z,5.63
2023-12-24T14:37:49.338Z,5.25
2023-12-24T14:40:16.776Z,4.88
2023-12-24T14:42:43.866Z,5.03
2023-12-24T14:45:10.864Z,5.35
2023-12-24T14:47:38.196Z,6.57
2023-12-24T14:50:05.899Z,6.35
2023-12-24T14:52:32.958Z,6.15
2023-12-24T14:55:00.820Z,6.18
2023-12-24T14:57:29.941Z,6.75
2023-12-24T15:02:29.610Z,6.22
2023-12-24T15:04:57.143Z,6.85
2023-12-24T15:07:26.241Z,6.30
2023-12-24T15:09:53.788Z,5.72
2023-12-24T15:12:21.411Z,6.53
2023-12-24T15:14:49.110Z,5.65
2023-12-24T15:17:17.514Z,5.47
2023-12-24T15:19:45.938Z,5.88
2023-12-24T15:22:13.656Z,4.82
2023-12-24T15:24:41.153Z,5.70
2023-12-24T15:27:08.419Z,5.15
2023-12-24T15:29:37.148Z,5.38
2023-12-24T15:32:05.982Z,4.65
2023-12-24T15:34:32.941Z,6.40
2023-12-24T15:37:01.048Z,6.10
2023-12-24T15:39:28.149Z,5.50
2023-12-24T15:41:55.223Z,6.22
2023-12-24T15:44:22.370Z,5.88
2023-12-24T15:46:50.162Z,5.82
2023-12-24T15:49:17.780Z,5.68
2023-12-24T15:51:45.156Z,6.25
2023-12-24T15:54:12.376Z,5.60
2023-12-24T15:56:41.099Z,6.22
2023-12-24T15:59:09.589Z,5.63
2023-12-24T16:01:47.184Z,5.50
2023-12-24T16:04:14.615Z,9.48
2023-12-24T16:06:43.801Z,7.38
2023-12-24T16:11:39.647Z,5.75
2023-12-24T16:14:09.784Z,6.55
2023-12-24T16:16:36.833Z,8.27
2023-12-24T16:19:04.468Z,6.45
2023-12-24T16:21:37.265Z,5.80
2023-12-24T16:24:06.717Z,6.38
2023-12-24T16:26:35.782Z,8.65
2023-12-24T16:31:30.933Z,6.93
2023-12-24T16:33:59.182Z,9.05
2023-12-24T16:36:26.347Z,6.03
2023-12-24T16:38:55.044Z,6.65
2023-12-24T16:41:23.572Z,7.88
2023-12-24T16:43:50.629Z,7.22
2023-12-24T16:46:17.818Z,6.97
2023-12-24T16:48:44.979Z,7.03
2023-12-24T16:51:22.736Z,7.55
2023-12-24T16:53:49.896Z,10.55
2023-12-24T16:56:18.076Z,8.50
2023-12-24T16:58:47.770Z,9.48
2023-12-24T17:01:14.968Z,37.42
2023-12-24T17:03:42.155Z,19.20
2023-12-24T17:06:10.599Z,18.13
2023-12-24T17:08:39.269Z,57.30
2023-12-24T17:11:07.933Z,33.13
2023-12-24T17:13:34.952Z,19.58
2023-12-24T17:16:06.150Z,18.65
2023-12-24T17:18:33.777Z,20.27
2023-12-24T17:21:01.012Z,17.63
2023-12-24T17:23:28.208Z,15.38
2023-12-24T17:25:56.723Z,15.52
2023-12-24T17:28:23.690Z,12.73
2023-12-24T17:30:50.619Z,13.85
2023-12-24T17:33:19.746Z,16.08
2023-12-24T17:35:46.884Z,14.25
2023-12-24T17:38:15.957Z,12.95
2023-12-24T17:40:42.873Z,14.15
2023-12-24T17:43:12.210Z,14.65
2023-12-24T17:45:41.069Z,15.20
2023-12-24T17:48:16.985Z,14.10
2023-12-24T17:50:47.358Z,20.63
2023-12-24T17:53:14.704Z,10.63
2023-12-24T17:55:42.362Z,11.27
2023-12-24T17:58:09.770Z,9.93
2023-12-24T18:00:36.599Z,12.73
2023-12-24T18:03:04.192Z,11.02
2023-12-24T18:05:31.368Z,8.60
2023-12-24T18:07:58.660Z,8.23
2023-12-24T18:10:25.579Z,7.40
2023-12-24T18:12:52.978Z,8.00
2023-12-24T18:15:20.189Z,9.00
2023-12-24T18:17:48.190Z,7.00
2023-12-24T18:20:15.569Z,7.60
2023-12-24T18:22:42.888Z,8.00
2023-12-24T18:25:09.895Z,6.90
2023-12-24T18:27:36.871Z,7.90
2023-12-24T18:30:04.068Z,6.93
2023-12-24T18:32:31.111Z,6.72
2023-12-24T18:34:58.102Z,7.63
2023-12-24T18:37:25.133Z,8.27
2023-12-24T18:39:52.039Z,5.82
2023-12-24T18:42:19.043Z,7.10
2023-12-24T18:44:46.041Z,7.97
2023-12-24T18:47:12.910Z,6.35
2023-12-24T18:49:42.738Z,6.32
2023-12-24T18:52:09.654Z,6.40
2023-12-24T18:54:36.614Z,5.72
2023-12-24T18:57:04.289Z,6.93
2023-12-24T18:59:31.352Z,6.07
2023-12-24T19:01:58.244Z,7.57
2023-12-24T19:04:25.148Z,6.10
2023-12-24T19:06:52.509Z,6.28
2023-12-24T19:09:19.416Z,6.82
2023-12-24T19:11:46.305Z,7.07
2023-12-24T19:14:13.773Z,6.63
2023-12-24T19:16:40.886Z,6.25
2023-12-24T19:19:08.042Z,7.07
2023-12-24T19:21:35.078Z,7.95
2023-12-24T19:24:01.938Z,7.50
2023-12-24T19:26:28.974Z,6.55
2023-12-24T19:29:03.322Z,8.55
2023-12-24T19:31:36.093Z,8.07
2023-12-24T19:34:03.481Z,8.88
2023-12-24T19:36:30.506Z,7.47
2023-12-24T19:38:57.401Z,7.03
2023-12-24T19:41:24.384Z,6.70
2023-12-24T19:43:51.372Z,7.45
2023-12-24T19:46:18.619Z,7.45
2023-12-24T19:48:47.049Z,7.18
2023-12-24T19:51:14.102Z,6.57
2023-12-24T19:53:41.042Z,8.05
2023-12-24T19:56:08.167Z,7.30
2023-12-24T19:58:35.185Z,7.03
2023-12-24T20:01:02.844Z,7.05
2023-12-24T20:03:29.862Z,6.20
2023-12-24T20:05:56.995Z,6.85
2023-12-24T20:08:24.003Z,6.50
2023-12-24T20:10:51.034Z,5.60
2023-12-24T20:13:19.033Z,5.72
2023-12-24T20:15:45.984Z,5.63
2023-12-24T20:18:13.470Z,5.70
2023-12-24T20:20:40.595Z,5.60
2023-12-24T20:23:08.077Z,4.53
2023-12-24T20:25:35.036Z,5.50
2023-12-24T20:28:04.478Z,5.13
2023-12-24T20:30:32.970Z,5.80
2023-12-24T20:33:01.010Z,5.43
2023-12-24T20:35:28.318Z,5.60
2023-12-24T20:37:55.301Z,5.47
2023-12-24T20:40:22.182Z,5.70
2023-12-24T20:42:49.174Z,4.88
2023-12-24T20:45:17.387Z,6.53
2023-12-24T20:47:44.408Z,5.50
2023-12-24T20:50:11.602Z,6.63
2023-12-24T20:52:38.571Z,6.85
2023-12-24T20:55:06.013Z,8.63
2023-12-24T20:57:33.017Z,8.18
2023-12-24T20:59:59.914Z,8.82
2023-12-24T21:02:33.680Z,9.15
2023-12-24T21:05:04.288Z,9.35
2023-12-24T21:07:31.385Z,10.35
2023-12-24T21:09:58.371Z,14.32
2023-12-24T21:12:25.691Z,17.60
2023-12-24T21:14:52.606Z,16.15
2023-12-24T21:17:19.921Z,17.48
2023-12-24T21:19:47.413Z,17.88
2023-12-24T21:22:14.688Z,18.15
2023-12-24T21:24:41.590Z,15.50
2023-12-24T21:27:08.510Z,14.30
2023-12-24T21:29:35.436Z,15.23
2023-12-24T21:32:04.164Z,15.02
2023-12-24T21:34:31.293Z,12.15
2023-12-24T21:36:58.277Z,12.63
2023-12-24T21:39:25.223Z,10.60
2023-12-24T21:41:52.728Z,14.75
2023-12-24T21:44:19.688Z,14.50
2023-12-24T21:46:46.602Z,15.30
2023-12-24T21:49:13.859Z,16.10
2023-12-24T21:51:42.248Z,15.75
2023-12-24T21:54:09.267Z,16.38
2023-12-24T21:56:36.422Z,15.45
2023-12-24T21:59:05.146Z,17.60
2023-12-24T22:01:33.388Z,16.70
2023-12-24T22:04:00.935Z,16.90
2023-12-24T22:06:28.967Z,15.93
2023-12-24T22:08:56.104Z,13.55
2023-12-24T22:11:23.285Z,13.98
2023-12-24T22:13:50.353Z,12.38
2023-12-24T22:16:18.403Z,11.90
2023-12-24T22:18:45.770Z,11.77
2023-12-24T22:21:14.486Z,12.98
2023-12-24T22:23:41.468Z,11.82
2023-12-24T22:26:10.529Z,13.95
2023-12-24T22:28:37.530Z,13.52
2023-12-24T22:31:07.697Z,11.73
2023-12-24T22:33:35.349Z,12.88
2023-12-24T22:36:02.463Z,12.65
2023-12-24T22:38:29.577Z,12.82
2023-12-24T22:40:56.458Z,14.05
2023-12-24T22:43:23.459Z,14.20
2023-12-24T22:45:52.450Z,13.98
2023-12-24T22:48:20.142Z,14.07
2023-12-24T22:50:47.429Z,12.32
2023-12-24T22:53:15.133Z,13.98
2023-12-24T22:55:42.435Z,12.68
2023-12-24T22:58:09.475Z,11.25
2023-12-24T23:00:36.523Z,11.90
2023-12-24T23:03:03.940Z,12.98
2023-12-24T23:05:30.886Z,11.82
2023-12-24T23:07:58.090Z,12.65
2023-12-24T23:10:25.391Z,13.30
2023-12-24T23:12:52.489Z,13.68
2023-12-24T23:15:19.669Z,11.77
2023-12-24T23:17:46.786Z,12.45
2023-12-24T23:20:14.110Z,13.18
2023-12-24T23:22:41.074Z,12.73
2023-12-24T23:25:08.355Z,11.50
2023-12-24T23:27:35.263Z,10.90
2023-12-24T23:30:02.604Z,9.52
2023-12-24T23:32:29.717Z,11.35
2023-12-24T23:34:56.761Z,11.00
2023-12-24T23:37:23.793Z,10.10
2023-12-24T23:39:50.706Z,10.40
2023-12-24T23:42:17.732Z,10.40
2023-12-24T23:44:44.647Z,10.50
2023-12-24T23:47:11.652Z,9.80
2023-12-24T23:49:38.570Z,9.48
2023-12-24T23:52:05.680Z,9.93
2023-12-24T23:54:32.692Z,10.10
2023-12-24T23:56:59.670Z,10.90
2023-12-24T23:59:26.727Z,9.63
